aviador You're here:

ZMUB Decoded Metar

ULAN BATOR in MONGOLIA
Report Time2017-10-21 15:30:00
UTC Time2017-10-21 15:54:25
Flight Rules vfr VFR
WindVRB at 2 kt
Visibility9999 m
Phenomena:N/A
Clouds:N/A
Expected CloudBase > 400 ft AGL from Temp-Dew spread
CeilingNone
Temp-2°C (ISA -8)
Dew Point-3°C (93% RH)
AAT-5.1°C
QNH1024 hPa
Density Alt3,061 ft
Elevation4,364 ft
Report Wrong Elevation
Raw Report
ZMUB 211530Z VRB01MPS CAVOK M02/M03 Q1024 NOSIG RMK QFE660.1
89=

Extra information for ZMUB:More info

Metar Taf Metar & Taf Last 4 Metars F.Rules Stats Wind Profile Meteogram Temp Stats Airport Information Weather charts Add Link Nearby VenuesMetar ALERT Operation Metar Decoded Social comments